Time;durP1;ratioP1;P1;durP2;ratioP2;P2;SDS_P1;SDS_P2;PMS_P1;PMS_P2;Temp;Humidity;BMP_temperature;BMP_pressure;BME280_temperature;BME280_humidity;BME280_pressure;Samples;Min_cycle;Max_cycle;Signal;HPM_P1;HPM_P2
2023/12/28 00:01:47;;;;;;;8.85;5.00;;;4.20;99.90;;;;;;5011545;28;20037;-67
2023/12/28 00:04:12;;;;;;;15.18;5.18;;;4.20;99.90;;;;;;5013503;28;20021;-67
2023/12/28 00:06:38;;;;;;;20.52;6.13;;;4.30;99.90;;;;;;5012371;28;20462;-66
2023/12/28 00:09:03;;;;;;;14.85;5.57;;;4.30;99.90;;;;;;5011868;28;20029;-67
2023/12/28 00:11:29;;;;;;;9.88;4.78;;;4.30;99.90;;;;;;5013079;28;20049;-68
2023/12/28 00:13:55;;;;;;;10.98;4.43;;;4.40;99.90;;;;;;5017317;28;20044;-67
2023/12/28 00:16:20;;;;;;;11.32;5.20;;;4.40;99.90;;;;;;5017171;28;20064;-67
2023/12/28 00:18:45;;;;;;;8.68;5.05;;;4.40;99.90;;;;;;5011219;28;20049;-66
2023/12/28 00:21:11;;;;;;;12.75;4.70;;;4.40;99.90;;;;;;5010764;28;20072;-66
2023/12/28 00:23:37;;;;;;;10.55;4.72;;;4.40;99.90;;;;;;5014627;28;20527;-68
2023/12/28 00:26:02;;;;;;;13.00;4.50;;;4.50;99.90;;;;;;5009546;28;20158;-67
2023/12/28 00:28:28;;;;;;;7.90;3.88;;;4.50;99.90;;;;;;5012328;28;20028;-67
2023/12/28 00:30:53;;;;;;;9.00;4.32;;;4.60;99.90;;;;;;5016650;28;20061;-67
2023/12/28 00:33:19;;;;;;;11.73;4.50;;;4.60;99.90;;;;;;5016182;28;20100;-67
2023/12/28 00:35:44;;;;;;;8.40;3.90;;;4.60;99.90;;;;;;5013900;28;20021;-67
2023/12/28 00:38:10;;;;;;;7.82;4.03;;;4.60;99.90;;;;;;5022835;28;20040;-67
2023/12/28 00:40:35;;;;;;;10.82;4.32;;;4.70;99.90;;;;;;5020577;28;20044;-67
2023/12/28 00:43:01;;;;;;;10.52;4.47;;;4.70;99.90;;;;;;5020648;28;20675;-67
2023/12/28 00:45:26;;;;;;;11.75;5.25;;;4.70;99.90;;;;;;5018452;28;20025;-67
2023/12/28 00:47:52;;;;;;;9.63;4.68;;;4.70;99.90;;;;;;5016833;28;20021;-67
2023/12/28 00:50:17;;;;;;;7.25;3.83;;;4.70;99.90;;;;;;5017446;28;20033;-67
2023/12/28 00:52:43;;;;;;;10.15;4.88;;;4.70;99.90;;;;;;5014272;28;20034;-67
2023/12/28 00:55:08;;;;;;;13.40;4.45;;;4.70;99.90;;;;;;5017481;28;20131;-67
2023/12/28 00:57:34;;;;;;;9.40;4.38;;;4.70;99.90;;;;;;5019754;28;20044;-67
2023/12/28 01:00:00;;;;;;;8.77;4.43;;;4.80;99.90;;;;;;5016992;28;20030;-67
2023/12/28 01:02:26;;;;;;;12.00;4.05;;;4.70;99.90;;;;;;5016955;28;20037;-67
2023/12/28 01:04:51;;;;;;;8.43;4.15;;;4.70;99.90;;;;;;5022350;28;20391;-67
2023/12/28 01:07:17;;;;;;;6.07;4.07;;;4.70;99.90;;;;;;5020141;28;20086;-67
2023/12/28 01:09:42;;;;;;;6.97;3.75;;;4.60;99.90;;;;;;5013435;28;20052;-67
2023/12/28 01:12:08;;;;;;;8.15;3.53;;;4.60;99.90;;;;;;5020248;28;20542;-68
2023/12/28 01:14:34;;;;;;;10.07;3.55;;;4.60;99.90;;;;;;5019974;28;20033;-68
2023/12/28 01:16:59;;;;;;;6.28;3.08;;;4.50;99.90;;;;;;5009910;28;20030;-67
2023/12/28 01:19:25;;;;;;;6.53;3.50;;;4.50;99.90;;;;;;5013128;28;20101;-67
2023/12/28 01:21:50;;;;;;;6.03;3.70;;;4.50;99.90;;;;;;5013088;28;20093;-67
2023/12/28 01:24:16;;;;;;;9.52;3.72;;;4.50;99.90;;;;;;5019364;28;20400;-68
2023/12/28 01:26:41;;;;;;;10.23;3.92;;;4.50;99.90;;;;;;5018198;28;20033;-68
2023/12/28 01:29:07;;;;;;;11.30;4.25;;;4.50;99.90;;;;;;5020014;28;20027;-67
2023/12/28 01:31:32;;;;;;;7.15;3.30;;;4.50;99.90;;;;;;5018139;28;20025;-67
2023/12/28 01:33:58;;;;;;;9.05;3.05;;;4.40;99.90;;;;;;5017131;28;20024;-66
2023/12/28 01:36:23;;;;;;;5.25;3.30;;;4.40;99.90;;;;;;5016135;28;20040;-67
2023/12/28 01:38:49;;;;;;;3.40;2.42;;;4.40;99.90;;;;;;5017570;28;20052;-67
2023/12/28 01:41:15;;;;;;;4.68;2.58;;;4.30;99.90;;;;;;5017721;28;20032;-67
2023/12/28 01:43:42;;;;;;;8.55;2.90;;;4.30;99.90;;;;;;5013852;28;20036;-67
2023/12/28 01:46:12;;;;;;;6.68;2.70;;;4.30;99.90;;;;;;5016712;28;20033;-67
2023/12/28 01:48:38;;;;;;;6.68;3.10;;;4.20;99.90;;;;;;5014408;28;20104;-67
2023/12/28 01:51:03;;;;;;;6.93;3.00;;;4.10;99.90;;;;;;5010098;28;20160;-67
2023/12/28 01:53:29;;;;;;;3.90;2.60;;;4.10;99.90;;;;;;5019557;28;20407;-67
2023/12/28 01:55:55;;;;;;;8.40;2.72;;;4.10;99.90;;;;;;5013599;28;20025;-67
2023/12/28 01:58:22;;;;;;;7.60;2.92;;;4.10;99.90;;;;;;5013408;28;20042;-68
2023/12/28 02:00:47;;;;;;;9.05;3.92;;;4.10;99.90;;;;;;5015261;28;20030;-67
2023/12/28 02:03:13;;;;;;;10.65;3.35;;;4.10;99.90;;;;;;5008584;28;20112;-67
2023/12/28 02:05:38;;;;;;;5.45;3.17;;;4.10;99.90;;;;;;5013186;28;20108;-67
2023/12/28 02:08:05;;;;;;;5.13;3.05;;;4.20;99.90;;;;;;5017051;28;20600;-67
2023/12/28 02:10:30;;;;;;;6.47;2.72;;;4.10;99.90;;;;;;5015064;28;20052;-67
2023/12/28 02:12:56;;;;;;;4.57;2.90;;;4.20;99.90;;;;;;5013931;28;20025;-67
2023/12/28 02:15:22;;;;;;;6.85;3.03;;;4.20;99.90;;;;;;5016742;28;20071;-68
2023/12/28 02:18:00;;;;;;;5.03;3.28;;;4.20;99.90;;;;;;5017064;28;20026;-67
2023/12/28 02:20:26;;;;;;;6.57;3.58;;;4.20;99.90;;;;;;5021042;28;20063;-67
2023/12/28 02:22:53;;;;;;;5.35;3.03;;;4.20;99.90;;;;;;5019246;28;20399;-67
2023/12/28 02:25:18;;;;;;;7.82;3.13;;;4.20;99.90;;;;;;5019005;28;20060;-67
2023/12/28 02:27:48;;;;;;;12.60;3.42;;;4.20;99.90;;;;;;5020847;28;20053;-67
2023/12/28 02:30:22;;;;;;;7.85;2.90;;;4.20;99.90;;;;;;5020669;28;20029;-67
2023/12/28 02:33:03;;;;;;;4.90;2.40;;;4.30;99.90;;;;;;5017032;28;20037;-67
2023/12/28 02:35:52;;;;;;;4.47;2.50;;;4.20;99.90;;;;;;5020414;28;20048;-68
2023/12/28 02:38:19;;;;;;;6.45;2.55;;;4.20;99.90;;;;;;5019664;28;20025;-67
2023/12/28 02:40:45;;;;;;;4.88;2.92;;;4.30;99.90;;;;;;5020687;28;20031;-67
2023/12/28 02:43:11;;;;;;;7.45;2.42;;;4.30;99.90;;;;;;5022499;28;20079;-68
2023/12/28 02:45:38;;;;;;;8.57;2.75;;;4.30;99.90;;;;;;5015942;28;20395;-68
2023/12/28 02:48:05;;;;;;;3.28;2.20;;;4.30;99.90;;;;;;5012166;28;20045;-67
2023/12/28 02:50:31;;;;;;;3.45;2.30;;;4.30;99.90;;;;;;5013596;28;20029;-68
2023/12/28 02:52:57;;;;;;;5.10;1.80;;;4.30;99.90;;;;;;5010741;28;20048;-67
2023/12/28 02:55:23;;;;;;;3.65;1.85;;;4.30;99.90;;;;;;5011704;28;20100;-68
2023/12/28 02:57:50;;;;;;;4.03;1.95;;;4.40;99.90;;;;;;5019638;28;20033;-58
2023/12/28 03:00:16;;;;;;;3.95;2.08;;;4.50;99.90;;;;;;5012877;28;20022;-58
2023/12/28 03:02:42;;;;;;;3.97;1.95;;;4.60;99.90;;;;;;5013673;28;20025;-59
2023/12/28 03:05:08;;;;;;;2.42;2.00;;;4.70;99.90;;;;;;5020492;28;20112;-58
2023/12/28 03:07:34;;;;;;;4.18;2.35;;;4.80;99.90;;;;;;5018810;28;20425;-58
2023/12/28 03:10:00;;;;;;;4.15;1.70;;;4.90;99.90;;;;;;5020029;28;20049;-58
2023/12/28 03:12:25;;;;;;;3.50;1.98;;;5.00;99.90;;;;;;5020161;28;20116;-58
2023/12/28 03:14:51;;;;;;;3.95;2.05;;;5.10;99.90;;;;;;5021917;28;20100;-58
2023/12/28 03:17:16;;;;;;;2.78;1.75;;;5.20;99.90;;;;;;5020180;28;20025;-59
2023/12/28 03:19:42;;;;;;;2.63;1.65;;;5.20;99.90;;;;;;5018574;28;20032;-58
2023/12/28 03:22:07;;;;;;;2.60;1.80;;;5.30;99.90;;;;;;5020273;28;20108;-58
2023/12/28 03:24:33;;;;;;;3.55;1.67;;;5.40;99.90;;;;;;5014773;28;20037;-58
2023/12/28 03:26:58;;;;;;;2.45;1.60;;;5.50;99.90;;;;;;5020092;28;20044;-58
2023/12/28 03:29:24;;;;;;;2.67;1.80;;;5.50;99.90;;;;;;5019704;28;20030;-59
2023/12/28 03:31:50;;;;;;;3.83;2.03;;;5.60;99.90;;;;;;5021555;28;20021;-58
2023/12/28 03:34:16;;;;;;;3.15;1.88;;;5.70;99.90;;;;;;5020007;28;20053;-59
2023/12/28 03:36:41;;;;;;;3.22;2.03;;;5.70;99.90;;;;;;5020124;28;20116;-58
2023/12/28 03:39:08;;;;;;;2.55;1.60;;;5.80;99.90;;;;;;5019875;28;20036;-59
2023/12/28 03:41:33;;;;;;;2.78;1.77;;;5.80;99.90;;;;;;5019832;28;20025;-58
2023/12/28 03:43:59;;;;;;;3.17;1.65;;;5.90;99.90;;;;;;5019703;28;20718;-59
2023/12/28 03:46:25;;;;;;;3.25;2.00;;;6.00;99.90;;;;;;5021339;28;20036;-59
2023/12/28 03:48:50;;;;;;;2.15;1.40;;;6.00;99.90;;;;;;5016497;28;20110;-58
2023/12/28 03:51:16;;;;;;;2.08;1.40;;;6.10;99.90;;;;;;5011923;28;20565;-59
2023/12/28 03:53:42;;;;;;;2.30;1.48;;;6.20;99.90;;;;;;5017451;28;20021;-59
2023/12/28 03:56:08;;;;;;;3.75;1.90;;;6.30;99.90;;;;;;5011304;28;20400;-58
2023/12/28 03:58:33;;;;;;;3.40;1.48;;;6.30;99.90;;;;;;5011252;28;20054;-59
2023/12/28 04:00:59;;;;;;;1.67;1.25;;;6.40;99.90;;;;;;5013119;28;20025;-57
2023/12/28 04:03:24;;;;;;;4.22;1.75;;;6.50;99.90;;;;;;5016425;28;20029;-59
2023/12/28 04:05:50;;;;;;;3.10;1.70;;;6.50;99.90;;;;;;5019436;28;20460;-59
2023/12/28 04:08:16;;;;;;;2.22;1.60;;;6.60;99.90;;;;;;5013760;28;20729;-58
2023/12/28 04:10:42;;;;;;;2.85;1.40;;;6.60;99.90;;;;;;5010883;28;20069;-58
2023/12/28 04:13:08;;;;;;;2.88;1.55;;;6.70;99.90;;;;;;5015170;28;20029;-56
2023/12/28 04:15:33;;;;;;;1.90;1.58;;;6.70;99.90;;;;;;5012954;28;20052;-59
2023/12/28 04:17:59;;;;;;;4.28;1.30;;;6.70;99.90;;;;;;5019071;28;20022;-56
2023/12/28 04:20:24;;;;;;;3.90;1.70;;;6.70;99.90;;;;;;5015100;28;20032;-59
2023/12/28 04:22:50;;;;;;;3.22;1.30;;;6.70;99.90;;;;;;5010802;28;20037;-59
2023/12/28 04:25:18;;;;;;;2.03;1.40;;;6.70;99.90;;;;;;5013795;28;20423;-59
2023/12/28 04:27:44;;;;;;;2.92;1.77;;;6.70;99.90;;;;;;5012334;28;20376;-59
2023/12/28 04:30:12;;;;;;;2.22;1.45;;;6.70;99.90;;;;;;5012821;28;20113;-59
2023/12/28 04:32:38;;;;;;;1.60;1.30;;;6.70;99.90;;;;;;5011430;28;20034;-59
2023/12/28 04:35:03;;;;;;;1.23;1.13;;;6.70;99.90;;;;;;5014454;28;20550;-59
2023/12/28 04:37:30;;;;;;;2.53;1.05;;;6.80;99.90;;;;;;5018988;28;20045;-58
2023/12/28 04:39:56;;;;;;;3.05;1.50;;;6.80;99.90;;;;;;5018671;28;20510;-59
2023/12/28 04:42:22;;;;;;;2.38;1.50;;;6.80;99.90;;;;;;5013344;28;20022;-59
2023/12/28 04:44:47;;;;;;;3.30;1.27;;;6.80;99.90;;;;;;5010606;28;20089;-58
2023/12/28 04:47:13;;;;;;;2.47;1.50;;;6.90;99.90;;;;;;5013166;28;20212;-57
2023/12/28 04:49:39;;;;;;;2.25;1.13;;;6.90;99.90;;;;;;5014480;28;20096;-57
2023/12/28 04:52:04;;;;;;;1.65;1.13;;;6.90;99.90;;;;;;5018817;28;20064;-57
2023/12/28 04:54:30;;;;;;;2.00;1.30;;;6.90;99.90;;;;;;5018925;28;20324;-56
2023/12/28 04:56:55;;;;;;;3.58;1.60;;;7.00;99.90;;;;;;5014853;28;20261;-57
2023/12/28 04:59:21;;;;;;;1.40;1.17;;;7.00;99.90;;;;;;5018547;28;20045;-57
2023/12/28 05:01:46;;;;;;;2.30;1.30;;;7.00;99.90;;;;;;5017001;28;20076;-57
2023/12/28 05:04:12;;;;;;;2.78;1.35;;;7.00;99.90;;;;;;5015835;28;20492;-57
2023/12/28 05:06:37;;;;;;;2.75;1.42;;;7.00;99.90;;;;;;5010473;28;20066;-57
2023/12/28 05:09:04;;;;;;;2.92;1.25;;;7.10;99.90;;;;;;5013164;28;20032;-57
2023/12/28 05:11:29;;;;;;;2.03;1.27;;;7.10;99.90;;;;;;5012051;28;20041;-57
2023/12/28 05:13:55;;;;;;;1.75;1.38;;;7.10;99.90;;;;;;5010494;28;20080;-57
2023/12/28 05:16:21;;;;;;;2.67;1.27;;;7.10;99.90;;;;;;5015264;28;20026;-56
2023/12/28 05:18:47;;;;;;;1.92;1.30;;;7.10;99.90;;;;;;5010424;28;20030;-57
2023/12/28 05:21:13;;;;;;;3.10;1.42;;;7.10;99.90;;;;;;5015021;28;20499;-57
2023/12/28 05:23:39;;;;;;;3.83;1.35;;;7.10;99.50;;;;;;5012445;28;20037;-57
2023/12/28 05:26:05;;;;;;;1.45;1.20;;;7.20;99.90;;;;;;5017358;28;20025;-56
2023/12/28 05:28:31;;;;;;;2.60;1.35;;;7.20;99.90;;;;;;5015439;28;20025;-57
2023/12/28 05:30:58;;;;;;;1.63;1.10;;;7.10;99.90;;;;;;5015793;28;20094;-56
2023/12/28 05:33:24;;;;;;;2.35;1.55;;;7.20;99.80;;;;;;5016205;28;20119;-56
2023/12/28 05:35:50;;;;;;;2.05;1.10;;;7.20;99.80;;;;;;5012854;28;20237;-56
2023/12/28 05:38:15;;;;;;;1.95;1.38;;;7.20;98.80;;;;;;5017557;28;20495;-57
2023/12/28 05:40:41;;;;;;;1.63;1.20;;;7.20;99.20;;;;;;5013298;28;20294;-56
2023/12/28 05:43:06;;;;;;;2.42;1.20;;;7.20;98.60;;;;;;5013727;28;20034;-57
2023/12/28 05:45:32;;;;;;;2.38;1.17;;;7.20;98.70;;;;;;5019789;28;20057;-57
2023/12/28 05:47:58;;;;;;;3.03;1.30;;;7.10;98.90;;;;;;5019758;28;20037;-58
2023/12/28 05:50:23;;;;;;;2.20;1.42;;;7.10;99.30;;;;;;5021860;28;20034;-56
2023/12/28 05:52:48;;;;;;;2.47;1.50;;;7.10;98.50;;;;;;5021873;28;20052;-56
2023/12/28 05:55:14;;;;;;;2.70;1.20;;;7.10;98.90;;;;;;5019420;28;20037;-57
2023/12/28 05:57:39;;;;;;;2.22;1.33;;;7.10;98.30;;;;;;5016981;28;20088;-58
2023/12/28 06:00:06;;;;;;;4.47;1.52;;;7.00;98.60;;;;;;5023177;28;20399;-57
2023/12/28 06:02:32;;;;;;;1.92;1.20;;;7.00;98.80;;;;;;5014350;28;20056;-57
2023/12/28 06:04:57;;;;;;;3.03;1.38;;;7.00;98.90;;;;;;5021887;28;20061;-57
2023/12/28 06:07:23;;;;;;;3.28;1.40;;;6.90;98.60;;;;;;5021532;28;20029;-56
2023/12/28 06:09:48;;;;;;;2.67;1.33;;;6.90;98.30;;;;;;5021326;28;20041;-56
2023/12/28 06:12:14;;;;;;;2.28;1.30;;;6.80;98.60;;;;;;5020304;28;20191;-57
2023/12/28 06:14:40;;;;;;;3.40;1.27;;;6.80;98.40;;;;;;5021346;28;20549;-57
2023/12/28 06:17:05;;;;;;;1.60;1.27;;;6.80;98.10;;;;;;5023347;28;20403;-57
2023/12/28 06:19:31;;;;;;;1.98;1.30;;;6.80;97.90;;;;;;5021498;28;20033;-57
2023/12/28 06:21:58;;;;;;;1.90;1.27;;;6.80;97.90;;;;;;5021080;28;20037;-57
2023/12/28 06:24:23;;;;;;;2.30;1.25;;;6.80;97.80;;;;;;5021371;28;20033;-56
2023/12/28 06:26:49;;;;;;;1.98;1.40;;;6.70;98.30;;;;;;5021088;28;20387;-57
2023/12/28 06:29:15;;;;;;;1.85;1.40;;;6.70;98.10;;;;;;5021280;28;20566;-57
2023/12/28 06:31:41;;;;;;;2.83;1.00;;;6.70;98.00;;;;;;5014689;28;20026;-57
2023/12/28 06:34:06;;;;;;;1.50;1.17;;;6.60;98.10;;;;;;5013729;28;20030;-57
2023/12/28 06:36:32;;;;;;;2.13;1.10;;;6.60;98.50;;;;;;5017794;28;20040;-57
2023/12/28 06:38:58;;;;;;;2.72;1.27;;;6.60;98.70;;;;;;5013497;28;20018;-57
2023/12/28 06:41:25;;;;;;;3.05;1.20;;;6.60;98.70;;;;;;5013204;28;20037;-56
2023/12/28 06:43:51;;;;;;;2.45;1.40;;;6.50;98.70;;;;;;5012640;28;20038;-56
2023/12/28 06:46:18;;;;;;;3.17;1.70;;;6.50;98.80;;;;;;5018571;28;20547;-56
2023/12/28 06:48:43;;;;;;;2.25;1.45;;;6.50;99.00;;;;;;5018716;28;20079;-56
2023/12/28 06:51:09;;;;;;;3.00;1.50;;;6.50;98.50;;;;;;5020903;28;20041;-57
2023/12/28 06:53:35;;;;;;;2.60;1.30;;;6.40;98.70;;;;;;5021004;28;20100;-59
2023/12/28 06:56:00;;;;;;;2.35;1.60;;;6.50;98.90;;;;;;5015941;28;20112;-56
2023/12/28 06:58:26;;;;;;;2.08;1.30;;;6.40;99.10;;;;;;5016490;28;20121;-56
2023/12/28 07:00:51;;;;;;;2.45;1.15;;;6.40;99.20;;;;;;5022734;28;20077;-56
2023/12/28 07:03:17;;;;;;;1.35;1.02;;;6.40;99.30;;;;;;5012026;28;20026;-56
2023/12/28 07:05:42;;;;;;;1.60;1.20;;;6.40;99.60;;;;;;5020672;28;20034;-57
2023/12/28 07:08:08;;;;;;;3.17;1.27;;;6.30;99.60;;;;;;5021000;28;20083;-57
2023/12/28 07:10:34;;;;;;;1.40;1.02;;;6.40;99.70;;;;;;5020584;28;20099;-57
2023/12/28 07:12:59;;;;;;;3.65;1.55;;;6.40;99.60;;;;;;5018868;28;20040;-57
2023/12/28 07:15:25;;;;;;;12.77;3.90;;;6.30;99.90;;;;;;5022293;28;20549;-57
2023/12/28 07:17:50;;;;;;;7.22;2.95;;;6.30;99.90;;;;;;5020429;28;20136;-56
2023/12/28 07:20:16;;;;;;;7.68;2.22;;;6.30;99.90;;;;;;5020160;28;20034;-58
2023/12/28 07:22:41;;;;;;;4.35;2.38;;;6.30;99.90;;;;;;5020376;28;20377;-60
2023/12/28 07:25:07;;;;;;;3.90;1.90;;;6.30;99.90;;;;;;5020166;28;20029;-57
2023/12/28 07:27:34;;;;;;;3.20;1.63;;;6.30;99.90;;;;;;5020263;28;20021;-56
2023/12/28 07:30:00;;;;;;;4.60;2.00;;;6.30;99.90;;;;;;5019979;28;20134;-58
2023/12/28 07:32:26;;;;;;;3.17;2.10;;;6.30;99.90;;;;;;5021891;28;20514;-57
2023/12/28 07:34:55;;;;;;;4.60;1.88;;;6.30;99.90;;;;;;5020050;28;20040;-57
2023/12/28 07:37:20;;;;;;;4.85;2.00;;;6.20;99.90;;;;;;5019875;28;20017;-56
2023/12/28 07:39:49;;;;;;;4.65;2.08;;;6.30;99.90;;;;;;5020151;28;20033;-56
2023/12/28 07:42:15;;;;;;;4.00;2.22;;;6.20;99.90;;;;;;5019552;28;20017;-56
2023/12/28 07:44:41;;;;;;;4.80;2.28;;;6.30;99.90;;;;;;5019817;28;20036;-57
2023/12/28 07:47:06;;;;;;;2.70;1.60;;;6.30;99.90;;;;;;5015766;28;20499;-56
2023/12/28 07:49:32;;;;;;;4.95;1.50;;;6.30;99.90;;;;;;5021508;28;20115;-56
2023/12/28 07:51:58;;;;;;;3.00;1.50;;;6.20;99.90;;;;;;5016266;28;20842;-54
2023/12/28 07:54:23;;;;;;;2.65;1.50;;;6.30;99.90;;;;;;5009927;28;20038;-56
2023/12/28 07:56:49;;;;;;;2.92;1.85;;;6.30;99.90;;;;;;5017041;28;20091;-55
2023/12/28 07:59:14;;;;;;;2.53;1.58;;;6.30;99.90;;;;;;5012935;28;20727;-56
2023/12/28 08:01:40;;;;;;;2.80;1.38;;;6.30;99.90;;;;;;5009090;28;20403;-56
2023/12/28 08:04:05;;;;;;;5.30;1.55;;;6.30;99.90;;;;;;5011426;28;20029;-57
2023/12/28 08:06:32;;;;;;;2.17;1.40;;;6.30;99.90;;;;;;5014151;28;20040;-57
2023/12/28 08:09:00;;;;;;;6.75;2.53;;;6.30;99.90;;;;;;5012575;28;20029;-57
2023/12/28 08:11:28;;;;;;;3.17;1.70;;;6.30;99.90;;;;;;5008831;28;20033;-57
2023/12/28 08:13:54;;;;;;;3.47;1.90;;;6.30;99.90;;;;;;5012703;28;20033;-56
2023/12/28 08:16:20;;;;;;;6.13;2.70;;;6.30;99.90;;;;;;5009156;28;20637;-57
2023/12/28 08:18:46;;;;;;;5.68;2.67;;;6.30;99.90;;;;;;5010624;28;20083;-58
2023/12/28 08:21:11;;;;;;;4.07;2.10;;;6.30;99.90;;;;;;5014092;28;20118;-57
2023/12/28 08:23:37;;;;;;;3.13;1.83;;;6.40;99.90;;;;;;5017436;28;20501;-56
2023/12/28 08:26:03;;;;;;;3.03;1.77;;;6.40;99.90;;;;;;5014555;28;20045;-59
2023/12/28 08:28:28;;;;;;;3.13;1.80;;;6.40;99.90;;;;;;5013493;28;20510;-57
2023/12/28 08:30:55;;;;;;;4.07;1.90;;;6.40;99.90;;;;;;5007443;28;20038;-55
2023/12/28 08:33:21;;;;;;;4.07;1.70;;;6.40;99.90;;;;;;5012652;28;20049;-57
2023/12/28 08:35:46;;;;;;;2.65;1.80;;;6.50;99.90;;;;;;5010028;28;20037;-57
2023/12/28 08:38:12;;;;;;;2.55;1.60;;;6.50;99.90;;;;;;5009825;28;20034;-56
2023/12/28 08:40:37;;;;;;;3.60;1.85;;;6.50;99.90;;;;;;5011924;28;20041;-58
2023/12/28 08:43:03;;;;;;;3.15;2.05;;;6.60;99.90;;;;;;5008975;28;20500;-58
2023/12/28 08:45:28;;;;;;;6.68;2.25;;;6.70;99.90;;;;;;5016973;28;20030;-57
2023/12/28 08:47:54;;;;;;;4.00;2.08;;;6.70;99.90;;;;;;5007861;28;20744;-57
2023/12/28 08:50:19;;;;;;;3.55;1.95;;;6.70;99.90;;;;;;5019017;28;20076;-57
2023/12/28 08:52:45;;;;;;;4.75;2.13;;;6.80;99.90;;;;;;5013261;28;20563;-57
2023/12/28 08:55:10;;;;;;;3.47;2.10;;;6.90;99.90;;;;;;5018856;28;20048;-57
2023/12/28 08:57:36;;;;;;;3.60;2.25;;;6.90;99.90;;;;;;5015633;28;20053;-58
2023/12/28 09:00:03;;;;;;;5.10;2.13;;;7.00;99.90;;;;;;5012508;28;20434;-60
2023/12/28 09:02:28;;;;;;;4.78;2.00;;;7.00;99.90;;;;;;5018583;28;20120;-60
2023/12/28 09:04:54;;;;;;;2.92;1.77;;;7.10;99.90;;;;;;5016691;28;20100;-74
2023/12/28 09:07:20;;;;;;;2.97;2.10;;;7.20;99.90;;;;;;5021255;28;20511;-77
2023/12/28 09:09:46;;;;;;;3.88;1.95;;;7.30;99.90;;;;;;5019496;28;20110;-74
2023/12/28 09:12:11;;;;;;;3.75;2.13;;;7.30;99.90;;;;;;5018970;28;20484;-75
2023/12/28 09:14:37;;;;;;;2.58;1.60;;;7.40;99.90;;;;;;5020749;28;20029;-74
2023/12/28 09:17:03;;;;;;;2.60;1.60;;;7.50;99.90;;;;;;5013098;28;20733;-71
2023/12/28 09:19:28;;;;;;;3.90;2.40;;;7.50;99.90;;;;;;5021685;28;20484;-70
2023/12/28 09:21:54;;;;;;;2.60;1.95;;;7.60;99.90;;;;;;5014935;28;20017;-72
2023/12/28 09:24:19;;;;;;;2.17;1.85;;;7.60;99.90;;;;;;5019613;28;20486;-73
2023/12/28 09:26:45;;;;;;;2.17;1.83;;;7.70;99.90;;;;;;5015188;28;20157;-75
2023/12/28 09:29:11;;;;;;;4.38;2.28;;;7.70;99.90;;;;;;5021441;28;20026;-75
2023/12/28 09:31:37;;;;;;;3.97;2.28;;;7.70;99.90;;;;;;5013922;28;20680;-76
2023/12/28 09:34:04;;;;;;;3.45;2.13;;;7.70;99.90;;;;;;5019005;28;20076;-75
2023/12/28 09:36:30;;;;;;;4.82;2.88;;;7.80;99.90;;;;;;5019974;28;20527;-74
2023/12/28 09:38:57;;;;;;;4.68;2.20;;;7.80;99.90;;;;;;5021325;28;20087;-74
2023/12/28 09:41:26;;;;;;;7.65;2.42;;;7.80;99.90;;;;;;5016394;28;20029;-74
2023/12/28 09:43:58;;;;;;;3.30;2.00;;;7.80;99.90;;;;;;5015677;28;20037;-74
2023/12/28 09:46:25;;;;;;;5.22;2.60;;;7.80;99.90;;;;;;5013162;28;20021;-75
2023/12/28 09:48:53;;;;;;;5.57;2.20;;;7.90;99.90;;;;;;5013872;28;20036;-74
2023/12/28 09:51:19;;;;;;;3.40;2.10;;;7.90;99.90;;;;;;5012991;28;20022;-76
2023/12/28 09:53:45;;;;;;;3.38;2.08;;;7.90;99.90;;;;;;5018038;28;20033;-75
2023/12/28 09:56:12;;;;;;;6.15;2.88;;;7.90;99.90;;;;;;5015568;28;20055;-76
2023/12/28 09:58:40;;;;;;;3.45;2.20;;;7.80;99.90;;;;;;5015676;28;20537;-74
2023/12/28 10:01:06;;;;;;;2.97;2.35;;;7.80;99.90;;;;;;5015332;28;20038;-75
2023/12/28 10:03:32;;;;;;;4.25;2.60;;;7.80;99.90;;;;;;5011390;28;20026;-73
2023/12/28 10:05:57;;;;;;;5.20;2.53;;;7.80;99.90;;;;;;5015794;28;20116;-74
2023/12/28 10:08:23;;;;;;;3.42;2.35;;;7.80;99.90;;;;;;5019558;28;20100;-74
2023/12/28 10:10:54;;;;;;;4.47;2.65;;;7.70;99.90;;;;;;5022435;28;20077;-73
2023/12/28 10:13:20;;;;;;;4.75;2.63;;;7.70;99.90;;;;;;5020921;28;20021;-74
2023/12/28 10:15:46;;;;;;;7.03;2.30;;;7.70;99.90;;;;;;5022397;28;20018;-73
2023/12/28 10:18:12;;;;;;;6.40;2.92;;;7.70;99.90;;;;;;5022304;28;20079;-73
2023/12/28 10:20:38;;;;;;;5.63;2.80;;;7.70;99.90;;;;;;5015369;28;20030;-73
2023/12/28 10:23:04;;;;;;;5.32;3.05;;;7.70;99.90;;;;;;5020702;28;20040;-74
2023/12/28 10:25:31;;;;;;;6.63;3.53;;;7.70;99.90;;;;;;5020899;28;20033;-73
2023/12/28 10:27:57;;;;;;;7.28;3.63;;;7.70;99.90;;;;;;5021752;28;20037;-74
2023/12/28 10:30:22;;;;;;;5.53;3.40;;;7.70;99.90;;;;;;5019125;28;20029;-73
2023/12/28 10:32:48;;;;;;;11.65;3.85;;;7.80;99.90;;;;;;5018946;28;20041;-74
2023/12/28 10:35:14;;;;;;;5.05;3.10;;;7.80;99.90;;;;;;5020221;28;20037;-76
2023/12/28 10:37:41;;;;;;;7.13;4.15;;;7.80;99.90;;;;;;5018511;28;20029;-75
2023/12/28 10:40:11;;;;;;;8.02;3.70;;;7.80;99.90;;;;;;5011988;28;20025;-75
2023/12/28 10:43:01;;;;;;;7.47;3.80;;;7.90;99.90;;;;;;5014072;28;20033;-74
2023/12/28 10:45:31;;;;;;;11.20;5.22;;;8.00;99.90;;;;;;5012046;28;20108;-75
2023/12/28 10:48:04;;;;;;;6.95;3.30;;;8.00;99.90;;;;;;5009059;28;20022;-74
2023/12/28 10:50:33;;;;;;;7.28;3.83;;;8.10;99.90;;;;;;5018038;28;20071;-74
2023/12/28 10:53:11;;;;;;;4.88;3.30;;;8.20;99.90;;;;;;5019228;28;20746;-73
2023/12/28 10:56:00;;;;;;;6.60;4.03;;;8.30;99.90;;;;;;5017735;28;20053;-74
2023/12/28 10:58:48;;;;;;;9.10;3.72;;;8.30;99.90;;;;;;5020901;28;20185;-74
2023/12/28 11:01:23;;;;;;;6.30;3.15;;;8.50;99.90;;;;;;5019220;28;20029;-75
2023/12/28 11:03:59;;;;;;;6.32;3.17;;;8.50;99.90;;;;;;5019655;28;20120;-74
2023/12/28 11:06:28;;;;;;;5.40;3.05;;;8.50;99.90;;;;;;5019522;28;20080;-74
2023/12/28 11:08:57;;;;;;;5.00;2.88;;;8.50;99.90;;;;;;5018452;28;20040;-75
2023/12/28 11:11:23;;;;;;;5.72;3.08;;;8.60;99.90;;;;;;5019284;28;20053;-74
2023/12/28 11:13:51;;;;;;;5.15;3.10;;;8.70;99.80;;;;;;5017888;28;20025;-75
2023/12/28 11:16:19;;;;;;;4.75;3.25;;;8.70;99.80;;;;;;5018405;28;20083;-73
2023/12/28 11:18:46;;;;;;;5.45;3.03;;;8.70;99.90;;;;;;5017957;28;20033;-75
2023/12/28 11:21:12;;;;;;;4.07;2.97;;;8.70;99.50;;;;;;5017572;28;20036;-74
2023/12/28 11:23:38;;;;;;;5.28;2.90;;;8.90;99.20;;;;;;5018615;28;20025;-74
2023/12/28 11:26:04;;;;;;;6.05;3.17;;;8.90;99.10;;;;;;5018997;28;20078;-73
2023/12/28 11:28:30;;;;;;;4.65;2.58;;;8.90;99.00;;;;;;5013317;28;20038;-75
2023/12/28 11:30:57;;;;;;;4.80;2.85;;;8.90;99.00;;;;;;5018066;28;20049;-74
2023/12/28 11:33:22;;;;;;;4.28;2.90;;;8.80;99.20;;;;;;5014860;28;20033;-72
2023/12/28 11:35:48;;;;;;;6.18;2.80;;;8.90;99.10;;;;;;5009870;28;20041;-76
2023/12/28 11:38:16;;;;;;;4.50;2.90;;;8.90;99.10;;;;;;5007106;28;20049;-74
2023/12/28 11:40:46;;;;;;;7.07;2.88;;;9.00;99.00;;;;;;5017049;28;20056;-73
2023/12/28 11:43:20;;;;;;;4.78;2.75;;;9.20;98.70;;;;;;5013637;28;20451;-74
2023/12/28 11:45:55;;;;;;;4.55;3.05;;;9.30;98.50;;;;;;5016177;28;20030;-73
2023/12/28 11:48:26;;;;;;;7.47;3.08;;;9.40;98.50;;;;;;5014598;28;20059;-73
2023/12/28 11:50:56;;;;;;;4.43;3.10;;;9.50;98.20;;;;;;5018235;28;20411;-75
2023/12/28 11:53:22;;;;;;;5.18;2.75;;;9.50;98.00;;;;;;5017989;28;20515;-75
2023/12/28 11:55:48;;;;;;;6.25;2.80;;;9.60;97.60;;;;;;5017903;28;20033;-73
2023/12/28 11:58:13;;;;;;;5.40;2.85;;;9.70;97.50;;;;;;5018441;28;20040;-73
2023/12/28 12:00:40;;;;;;;5.85;2.92;;;9.70;97.20;;;;;;5019757;28;20029;-74
2023/12/28 12:03:11;;;;;;;3.53;2.45;;;9.80;96.80;;;;;;5012476;28;20033;-73
2023/12/28 12:05:36;;;;;;;3.28;2.22;;;9.80;96.40;;;;;;5012602;28;20032;-75
2023/12/28 12:08:03;;;;;;;3.25;2.38;;;9.80;96.30;;;;;;5014261;28;20497;-74
2023/12/28 12:10:28;;;;;;;4.07;1.92;;;9.70;96.20;;;;;;5011068;28;20037;-73
2023/12/28 12:12:54;;;;;;;3.30;2.20;;;9.60;95.90;;;;;;5010819;28;20724;-73
2023/12/28 12:15:19;;;;;;;3.88;2.17;;;9.60;95.60;;;;;;5017035;28;20100;-72
2023/12/28 12:17:45;;;;;;;3.65;2.42;;;9.50;95.70;;;;;;5020778;28;20174;-73
2023/12/28 12:20:10;;;;;;;5.13;2.17;;;9.50;95.40;;;;;;5018143;28;20450;-73
2023/12/28 12:22:36;;;;;;;4.25;2.17;;;9.50;95.20;;;;;;5019142;28;20040;-73
2023/12/28 12:25:05;;;;;;;3.08;2.17;;;9.50;95.20;;;;;;5018875;28;20056;-73
2023/12/28 12:27:31;;;;;;;5.10;2.35;;;9.50;95.40;;;;;;5018889;28;20032;-73
2023/12/28 12:29:56;;;;;;;4.38;2.25;;;9.40;95.30;;;;;;5017779;28;20028;-73
2023/12/28 12:32:22;;;;;;;5.00;2.17;;;9.40;95.20;;;;;;5020754;28;20034;-74
2023/12/28 12:34:49;;;;;;;5.25;2.42;;;9.40;95.20;;;;;;5020077;28;20625;-75
2023/12/28 12:37:15;;;;;;;4.18;2.67;;;9.40;95.10;;;;;;5019186;28;20030;-75
2023/12/28 12:39:41;;;;;;;2.75;1.92;;;9.50;95.00;;;;;;5022999;28;20030;-72
2023/12/28 12:42:06;;;;;;;3.42;2.10;;;9.50;95.30;;;;;;5019248;28;20108;-72
2023/12/28 12:44:33;;;;;;;4.30;1.95;;;9.40;95.00;;;;;;5018867;28;20044;-75
2023/12/28 12:46:59;;;;;;;5.20;2.13;;;9.40;95.30;;;;;;5016497;28;20124;-74
2023/12/28 12:49:25;;;;;;;3.80;1.90;;;9.40;94.90;;;;;;5013836;28;20034;-74
2023/12/28 12:51:51;;;;;;;3.88;2.17;;;9.50;94.80;;;;;;5010607;28;20033;-75